METAR Data

Data at: 1152 UTC 24 May 2022

METAR for:KMVY (Marthas Vineyard Arp, MA, US)
Text:KMVY 241053Z 05010KT 10SM -RA OVC110 13/10 A3029 RMK AO2 RAB0959 SLP256 P0000 T01280100
Temperature: 12.8°C ( 55°F)
Dewpoint: 10.0°C ( 50°F) [RH = 83%]
Pressure (altimeter):30.29 inches Hg (1025.8 mb) [Sea level pressure: 1025.6 mb]
Winds:from the NE (50 degrees) at 12 MPH (10 knots; 5.1 m/s)
Visibility:10 or more sm (16+ km)
Ceiling:11000 feet AGL
Clouds: overcast cloud deck at 11000 feet AGL
Weather:-RA (light rain)